sensor_id;sensor_type;location;lat;lon;timestamp;P1;durP1;ratioP1;P2;durP2;ratioP2
62848;SDS011;48941;49.516;8.286;2022-12-07T00:01:18;9.25;;;6.07;;
62848;SDS011;48941;49.516;8.286;2022-12-07T00:03:48;9.20;;;5.80;;
62848;SDS011;48941;49.516;8.286;2022-12-07T00:06:17;9.82;;;5.90;;
62848;SDS011;48941;49.516;8.286;2022-12-07T00:08:47;10.98;;;5.90;;
62848;SDS011;48941;49.516;8.286;2022-12-07T00:11:16;9.23;;;5.68;;
62848;SDS011;48941;49.516;8.286;2022-12-07T00:13:46;11.05;;;5.32;;
62848;SDS011;48941;49.516;8.286;2022-12-07T00:16:15;10.02;;;6.22;;
62848;SDS011;48941;49.516;8.286;2022-12-07T00:18:45;11.38;;;6.15;;
62848;SDS011;48941;49.516;8.286;2022-12-07T00:21:13;10.88;;;6.50;;
62848;SDS011;48941;49.516;8.286;2022-12-07T00:23:43;9.98;;;6.05;;
62848;SDS011;48941;49.516;8.286;2022-12-07T00:26:14;10.15;;;6.07;;
62848;SDS011;48941;49.516;8.286;2022-12-07T00:28:44;9.25;;;5.75;;
62848;SDS011;48941;49.516;8.286;2022-12-07T00:31:15;9.68;;;5.88;;
62848;SDS011;48941;49.516;8.286;2022-12-07T00:33:44;9.82;;;5.72;;
62848;SDS011;48941;49.516;8.286;2022-12-07T00:36:13;10.38;;;6.25;;
62848;SDS011;48941;49.516;8.286;2022-12-07T00:38:50;11.02;;;5.78;;
62848;SDS011;48941;49.516;8.286;2022-12-07T00:41:19;9.25;;;5.72;;
62848;SDS011;48941;49.516;8.286;2022-12-07T00:43:49;8.85;;;5.70;;
62848;SDS011;48941;49.516;8.286;2022-12-07T00:46:18;10.90;;;6.15;;
62848;SDS011;48941;49.516;8.286;2022-12-07T00:48:47;9.88;;;5.85;;
62848;SDS011;48941;49.516;8.286;2022-12-07T00:51:15;8.65;;;5.47;;
62848;SDS011;48941;49.516;8.286;2022-12-07T00:53:45;9.57;;;5.45;;
62848;SDS011;48941;49.516;8.286;2022-12-07T00:56:14;8.82;;;5.38;;
62848;SDS011;48941;49.516;8.286;2022-12-07T00:58:44;9.80;;;6.00;;
62848;SDS011;48941;49.516;8.286;2022-12-07T01:01:17;9.82;;;5.68;;
62848;SDS011;48941;49.516;8.286;2022-12-07T01:03:45;10.15;;;5.63;;
62848;SDS011;48941;49.516;8.286;2022-12-07T01:06:13;11.52;;;6.20;;
62848;SDS011;48941;49.516;8.286;2022-12-07T01:08:43;9.60;;;5.93;;
62848;SDS011;48941;49.516;8.286;2022-12-07T01:11:12;8.68;;;5.50;;
62848;SDS011;48941;49.516;8.286;2022-12-07T01:13:42;9.40;;;5.60;;
62848;SDS011;48941;49.516;8.286;2022-12-07T01:16:12;8.65;;;5.55;;
62848;SDS011;48941;49.516;8.286;2022-12-07T01:18:42;10.27;;;6.10;;
62848;SDS011;48941;49.516;8.286;2022-12-07T01:21:13;12.88;;;6.13;;
62848;SDS011;48941;49.516;8.286;2022-12-07T01:23:44;11.20;;;6.22;;
62848;SDS011;48941;49.516;8.286;2022-12-07T01:26:13;11.88;;;5.88;;
62848;SDS011;48941;49.516;8.286;2022-12-07T01:28:42;11.95;;;6.38;;
62848;SDS011;48941;49.516;8.286;2022-12-07T01:31:12;9.48;;;5.70;;
62848;SDS011;48941;49.516;8.286;2022-12-07T01:33:42;9.63;;;5.78;;
62848;SDS011;48941;49.516;8.286;2022-12-07T01:36:12;9.43;;;5.35;;
62848;SDS011;48941;49.516;8.286;2022-12-07T01:38:42;10.30;;;5.60;;
62848;SDS011;48941;49.516;8.286;2022-12-07T01:41:10;10.65;;;5.82;;
62848;SDS011;48941;49.516;8.286;2022-12-07T01:44:06;10.63;;;6.00;;
62848;SDS011;48941;49.516;8.286;2022-12-07T01:46:45;10.10;;;6.07;;
62848;SDS011;48941;49.516;8.286;2022-12-07T01:52:02;9.50;;;5.85;;
62848;SDS011;48941;49.516;8.286;2022-12-07T01:54:36;8.48;;;5.40;;
62848;SDS011;48941;49.516;8.286;2022-12-07T01:57:04;10.43;;;6.30;;
62848;SDS011;48941;49.516;8.286;2022-12-07T01:59:35;9.60;;;5.88;;
62848;SDS011;48941;49.516;8.286;2022-12-07T02:02:05;11.13;;;6.20;;
62848;SDS011;48941;49.516;8.286;2022-12-07T02:04:37;11.52;;;6.53;;
62848;SDS011;48941;49.516;8.286;2022-12-07T02:07:05;10.27;;;6.32;;
62848;SDS011;48941;49.516;8.286;2022-12-07T02:09:34;11.90;;;7.03;;
62848;SDS011;48941;49.516;8.286;2022-12-07T02:12:01;13.20;;;6.60;;
62848;SDS011;48941;49.516;8.286;2022-12-07T02:14:30;12.75;;;6.40;;
62848;SDS011;48941;49.516;8.286;2022-12-07T02:17:02;10.02;;;6.13;;
62848;SDS011;48941;49.516;8.286;2022-12-07T02:23:00;8.38;;;5.18;;
62848;SDS011;48941;49.516;8.286;2022-12-07T02:25:51;9.20;;;5.18;;
62848;SDS011;48941;49.516;8.286;2022-12-07T02:28:30;9.57;;;5.68;;
62848;SDS011;48941;49.516;8.286;2022-12-07T02:31:04;9.48;;;5.68;;
62848;SDS011;48941;49.516;8.286;2022-12-07T02:33:40;10.20;;;5.80;;
62848;SDS011;48941;49.516;8.286;2022-12-07T02:36:12;9.93;;;5.55;;
62848;SDS011;48941;49.516;8.286;2022-12-07T02:38:47;8.75;;;5.50;;
62848;SDS011;48941;49.516;8.286;2022-12-07T02:41:23;9.77;;;5.95;;
62848;SDS011;48941;49.516;8.286;2022-12-07T02:43:57;9.82;;;5.75;;
62848;SDS011;48941;49.516;8.286;2022-12-07T02:46:29;12.82;;;5.50;;
62848;SDS011;48941;49.516;8.286;2022-12-07T02:49:00;10.90;;;5.72;;
62848;SDS011;48941;49.516;8.286;2022-12-07T02:51:29;9.32;;;5.75;;
62848;SDS011;48941;49.516;8.286;2022-12-07T02:53:58;8.50;;;5.10;;
62848;SDS011;48941;49.516;8.286;2022-12-07T02:56:27;8.80;;;4.65;;
62848;SDS011;48941;49.516;8.286;2022-12-07T02:59:12;9.40;;;5.70;;
62848;SDS011;48941;49.516;8.286;2022-12-07T03:01:54;8.45;;;5.78;;
62848;SDS011;48941;49.516;8.286;2022-12-07T03:04:35;8.60;;;6.10;;
62848;SDS011;48941;49.516;8.286;2022-12-07T03:07:11;9.07;;;5.20;;
62848;SDS011;48941;49.516;8.286;2022-12-07T03:09:50;8.85;;;4.75;;
62848;SDS011;48941;49.516;8.286;2022-12-07T03:12:26;9.73;;;5.13;;
62848;SDS011;48941;49.516;8.286;2022-12-07T03:15:00;10.43;;;5.13;;
62848;SDS011;48941;49.516;8.286;2022-12-07T03:17:34;11.32;;;5.32;;
62848;SDS011;48941;49.516;8.286;2022-12-07T03:20:07;10.20;;;4.38;;
62848;SDS011;48941;49.516;8.286;2022-12-07T03:22:38;7.72;;;4.72;;
62848;SDS011;48941;49.516;8.286;2022-12-07T03:25:10;7.55;;;4.47;;
62848;SDS011;48941;49.516;8.286;2022-12-07T03:27:42;7.90;;;4.47;;
62848;SDS011;48941;49.516;8.286;2022-12-07T03:30:17;7.25;;;4.40;;
62848;SDS011;48941;49.516;8.286;2022-12-07T03:32:49;7.57;;;4.60;;
62848;SDS011;48941;49.516;8.286;2022-12-07T03:35:21;7.55;;;4.60;;
62848;SDS011;48941;49.516;8.286;2022-12-07T03:37:53;6.60;;;4.53;;
62848;SDS011;48941;49.516;8.286;2022-12-07T03:40:23;9.18;;;4.63;;
62848;SDS011;48941;49.516;8.286;2022-12-07T03:42:57;8.38;;;4.93;;
62848;SDS011;48941;49.516;8.286;2022-12-07T03:45:37;7.03;;;4.40;;
62848;SDS011;48941;49.516;8.286;2022-12-07T03:48:08;8.88;;;4.88;;
62848;SDS011;48941;49.516;8.286;2022-12-07T03:50:48;8.05;;;5.13;;
62848;SDS011;48941;49.516;8.286;2022-12-07T03:53:20;12.13;;;5.72;;
62848;SDS011;48941;49.516;8.286;2022-12-07T03:55:52;8.05;;;4.57;;
62848;SDS011;48941;49.516;8.286;2022-12-07T03:58:21;6.35;;;3.90;;
62848;SDS011;48941;49.516;8.286;2022-12-07T04:00:50;7.57;;;4.50;;
62848;SDS011;48941;49.516;8.286;2022-12-07T04:03:20;8.52;;;4.43;;
62848;SDS011;48941;49.516;8.286;2022-12-07T04:05:48;5.75;;;3.78;;
62848;SDS011;48941;49.516;8.286;2022-12-07T04:08:16;7.68;;;5.13;;
62848;SDS011;48941;49.516;8.286;2022-12-07T04:10:44;9.10;;;4.47;;
62848;SDS011;48941;49.516;8.286;2022-12-07T04:13:12;7.82;;;4.25;;
62848;SDS011;48941;49.516;8.286;2022-12-07T04:15:40;7.93;;;4.57;;
62848;SDS011;48941;49.516;8.286;2022-12-07T04:18:08;8.00;;;5.00;;
62848;SDS011;48941;49.516;8.286;2022-12-07T04:20:37;9.02;;;5.07;;
62848;SDS011;48941;49.516;8.286;2022-12-07T04:23:05;7.68;;;4.32;;
62848;SDS011;48941;49.516;8.286;2022-12-07T04:25:32;6.43;;;4.03;;
62848;SDS011;48941;49.516;8.286;2022-12-07T04:28:00;8.52;;;5.15;;
62848;SDS011;48941;49.516;8.286;2022-12-07T04:30:28;8.32;;;4.80;;
62848;SDS011;48941;49.516;8.286;2022-12-07T04:32:56;6.43;;;4.28;;
62848;SDS011;48941;49.516;8.286;2022-12-07T04:35:23;7.68;;;4.63;;
62848;SDS011;48941;49.516;8.286;2022-12-07T04:37:52;6.40;;;3.95;;
62848;SDS011;48941;49.516;8.286;2022-12-07T04:40:20;6.25;;;4.03;;
62848;SDS011;48941;49.516;8.286;2022-12-07T04:42:48;5.97;;;4.00;;
62848;SDS011;48941;49.516;8.286;2022-12-07T04:45:16;9.32;;;3.97;;
62848;SDS011;48941;49.516;8.286;2022-12-07T04:47:43;6.97;;;4.35;;
62848;SDS011;48941;49.516;8.286;2022-12-07T04:50:11;6.88;;;4.38;;
62848;SDS011;48941;49.516;8.286;2022-12-07T04:52:39;7.28;;;4.28;;
62848;SDS011;48941;49.516;8.286;2022-12-07T04:55:08;7.15;;;4.32;;
62848;SDS011;48941;49.516;8.286;2022-12-07T04:57:36;9.10;;;4.95;;
62848;SDS011;48941;49.516;8.286;2022-12-07T05:00:04;10.52;;;4.38;;
62848;SDS011;48941;49.516;8.286;2022-12-07T05:02:33;7.70;;;4.80;;
62848;SDS011;48941;49.516;8.286;2022-12-07T05:05:00;9.40;;;4.43;;
62848;SDS011;48941;49.516;8.286;2022-12-07T05:07:28;9.43;;;4.93;;
62848;SDS011;48941;49.516;8.286;2022-12-07T05:09:56;8.45;;;4.80;;
62848;SDS011;48941;49.516;8.286;2022-12-07T05:12:25;7.10;;;3.85;;
62848;SDS011;48941;49.516;8.286;2022-12-07T05:14:53;6.32;;;4.32;;
62848;SDS011;48941;49.516;8.286;2022-12-07T05:17:21;6.70;;;4.35;;
62848;SDS011;48941;49.516;8.286;2022-12-07T05:19:48;9.40;;;4.40;;
62848;SDS011;48941;49.516;8.286;2022-12-07T05:22:16;8.98;;;4.82;;
62848;SDS011;48941;49.516;8.286;2022-12-07T05:24:44;7.38;;;4.55;;
62848;SDS011;48941;49.516;8.286;2022-12-07T05:27:12;8.02;;;5.20;;
62848;SDS011;48941;49.516;8.286;2022-12-07T05:29:41;7.78;;;4.93;;
62848;SDS011;48941;49.516;8.286;2022-12-07T05:32:08;7.55;;;4.97;;
62848;SDS011;48941;49.516;8.286;2022-12-07T05:34:36;8.02;;;4.88;;
62848;SDS011;48941;49.516;8.286;2022-12-07T05:37:04;12.52;;;4.95;;
62848;SDS011;48941;49.516;8.286;2022-12-07T05:39:32;11.30;;;6.38;;
62848;SDS011;48941;49.516;8.286;2022-12-07T05:41:59;10.35;;;6.65;;
62848;SDS011;48941;49.516;8.286;2022-12-07T05:44:41;12.32;;;6.57;;
62848;SDS011;48941;49.516;8.286;2022-12-07T05:47:10;11.63;;;5.78;;
62848;SDS011;48941;49.516;8.286;2022-12-07T05:49:38;7.95;;;5.10;;
62848;SDS011;48941;49.516;8.286;2022-12-07T05:52:06;7.75;;;4.95;;
62848;SDS011;48941;49.516;8.286;2022-12-07T05:54:34;7.68;;;4.97;;
62848;SDS011;48941;49.516;8.286;2022-12-07T05:57:01;8.15;;;5.35;;
62848;SDS011;48941;49.516;8.286;2022-12-07T05:59:29;12.80;;;5.75;;
62848;SDS011;48941;49.516;8.286;2022-12-07T06:01:58;9.52;;;5.57;;
62848;SDS011;48941;49.516;8.286;2022-12-07T06:04:28;9.50;;;5.43;;
62848;SDS011;48941;49.516;8.286;2022-12-07T06:06:57;9.40;;;5.63;;
62848;SDS011;48941;49.516;8.286;2022-12-07T06:09:26;12.88;;;6.43;;
62848;SDS011;48941;49.516;8.286;2022-12-07T06:11:55;12.57;;;6.68;;
62848;SDS011;48941;49.516;8.286;2022-12-07T06:14:49;11.73;;;5.72;;
62848;SDS011;48941;49.516;8.286;2022-12-07T06:17:18;10.43;;;6.38;;
62848;SDS011;48941;49.516;8.286;2022-12-07T06:19:46;9.55;;;5.68;;
62848;SDS011;48941;49.516;8.286;2022-12-07T06:22:14;10.48;;;5.95;;
62848;SDS011;48941;49.516;8.286;2022-12-07T06:24:42;10.75;;;5.88;;
62848;SDS011;48941;49.516;8.286;2022-12-07T06:27:10;10.13;;;5.60;;
62848;SDS011;48941;49.516;8.286;2022-12-07T06:29:38;9.55;;;6.38;;
62848;SDS011;48941;49.516;8.286;2022-12-07T06:32:05;10.07;;;5.90;;
62848;SDS011;48941;49.516;8.286;2022-12-07T06:34:35;9.88;;;6.32;;
62848;SDS011;48941;49.516;8.286;2022-12-07T06:37:03;11.85;;;6.72;;
62848;SDS011;48941;49.516;8.286;2022-12-07T06:39:30;15.95;;;6.90;;
62848;SDS011;48941;49.516;8.286;2022-12-07T06:41:58;9.77;;;6.10;;
62848;SDS011;48941;49.516;8.286;2022-12-07T06:44:26;11.98;;;6.47;;
62848;SDS011;48941;49.516;8.286;2022-12-07T06:46:54;10.98;;;7.00;;
62848;SDS011;48941;49.516;8.286;2022-12-07T06:49:43;10.20;;;5.88;;
62848;SDS011;48941;49.516;8.286;2022-12-07T06:52:11;10.38;;;6.50;;
62848;SDS011;48941;49.516;8.286;2022-12-07T06:54:39;15.80;;;7.88;;
62848;SDS011;48941;49.516;8.286;2022-12-07T06:57:07;18.20;;;9.43;;
62848;SDS011;48941;49.516;8.286;2022-12-07T06:59:35;17.45;;;9.05;;
62848;SDS011;48941;49.516;8.286;2022-12-07T07:02:03;17.15;;;9.18;;
62848;SDS011;48941;49.516;8.286;2022-12-07T07:04:31;19.38;;;9.25;;
62848;SDS011;48941;49.516;8.286;2022-12-07T07:07:00;18.33;;;9.52;;
62848;SDS011;48941;49.516;8.286;2022-12-07T07:09:28;27.17;;;12.60;;
62848;SDS011;48941;49.516;8.286;2022-12-07T07:11:55;23.63;;;12.73;;
62848;SDS011;48941;49.516;8.286;2022-12-07T07:14:23;21.63;;;11.05;;
62848;SDS011;48941;49.516;8.286;2022-12-07T07:16:51;31.52;;;14.00;;
62848;SDS011;48941;49.516;8.286;2022-12-07T07:19:19;18.75;;;10.77;;
62848;SDS011;48941;49.516;8.286;2022-12-07T07:21:47;16.05;;;9.45;;
62848;SDS011;48941;49.516;8.286;2022-12-07T07:24:16;13.40;;;7.72;;
62848;SDS011;48941;49.516;8.286;2022-12-07T07:26:43;14.38;;;8.55;;
62848;SDS011;48941;49.516;8.286;2022-12-07T07:29:11;17.52;;;10.52;;
62848;SDS011;48941;49.516;8.286;2022-12-07T07:31:39;40.08;;;20.65;;
62848;SDS011;48941;49.516;8.286;2022-12-07T07:34:07;23.15;;;11.70;;
62848;SDS011;48941;49.516;8.286;2022-12-07T07:36:35;13.68;;;8.00;;
62848;SDS011;48941;49.516;8.286;2022-12-07T07:39:03;12.93;;;8.07;;
62848;SDS011;48941;49.516;8.286;2022-12-07T07:41:32;13.70;;;8.20;;
62848;SDS011;48941;49.516;8.286;2022-12-07T07:44:00;20.80;;;13.82;;
62848;SDS011;48941;49.516;8.286;2022-12-07T07:46:28;19.90;;;11.45;;
62848;SDS011;48941;49.516;8.286;2022-12-07T07:48:55;26.40;;;12.75;;
62848;SDS011;48941;49.516;8.286;2022-12-07T07:51:23;21.65;;;13.52;;
62848;SDS011;48941;49.516;8.286;2022-12-07T07:53:51;17.40;;;11.32;;
62848;SDS011;48941;49.516;8.286;2022-12-07T07:56:18;17.23;;;10.38;;
62848;SDS011;48941;49.516;8.286;2022-12-07T07:58:48;17.52;;;8.30;;
62848;SDS011;48941;49.516;8.286;2022-12-07T08:01:19;13.70;;;7.75;;
62848;SDS011;48941;49.516;8.286;2022-12-07T08:03:47;23.75;;;13.90;;
62848;SDS011;48941;49.516;8.286;2022-12-07T08:06:15;13.00;;;7.82;;
62848;SDS011;48941;49.516;8.286;2022-12-07T08:08:43;17.33;;;7.93;;
62848;SDS011;48941;49.516;8.286;2022-12-07T08:11:11;12.40;;;7.32;;
62848;SDS011;48941;49.516;8.286;2022-12-07T08:13:39;14.55;;;7.85;;
62848;SDS011;48941;49.516;8.286;2022-12-07T08:16:08;12.68;;;6.85;;
62848;SDS011;48941;49.516;8.286;2022-12-07T08:18:39;13.50;;;7.70;;
62848;SDS011;48941;49.516;8.286;2022-12-07T08:21:09;15.85;;;7.55;;
62848;SDS011;48941;49.516;8.286;2022-12-07T08:23:40;14.88;;;7.68;;
62848;SDS011;48941;49.516;8.286;2022-12-07T08:26:09;12.88;;;7.47;;
62848;SDS011;48941;49.516;8.286;2022-12-07T08:28:38;13.80;;;8.35;;
62848;SDS011;48941;49.516;8.286;2022-12-07T08:31:08;15.82;;;8.77;;
62848;SDS011;48941;49.516;8.286;2022-12-07T08:33:38;15.48;;;9.80;;
62848;SDS011;48941;49.516;8.286;2022-12-07T08:36:07;18.25;;;9.10;;
62848;SDS011;48941;49.516;8.286;2022-12-07T08:38:37;17.40;;;9.55;;
62848;SDS011;48941;49.516;8.286;2022-12-07T08:41:17;16.83;;;8.57;;
62848;SDS011;48941;49.516;8.286;2022-12-07T08:43:45;16.00;;;8.35;;
62848;SDS011;48941;49.516;8.286;2022-12-07T08:46:16;15.85;;;7.60;;
62848;SDS011;48941;49.516;8.286;2022-12-07T08:48:48;13.45;;;8.05;;
62848;SDS011;48941;49.516;8.286;2022-12-07T08:51:20;12.65;;;7.75;;
62848;SDS011;48941;49.516;8.286;2022-12-07T08:53:49;10.02;;;6.03;;
62848;SDS011;48941;49.516;8.286;2022-12-07T08:56:18;13.18;;;7.63;;
62848;SDS011;48941;49.516;8.286;2022-12-07T08:58:47;14.38;;;7.28;;
62848;SDS011;48941;49.516;8.286;2022-12-07T09:01:17;11.27;;;6.85;;
62848;SDS011;48941;49.516;8.286;2022-12-07T09:03:45;14.00;;;7.55;;
62848;SDS011;48941;49.516;8.286;2022-12-07T09:06:13;14.52;;;7.50;;
62848;SDS011;48941;49.516;8.286;2022-12-07T09:08:42;13.27;;;7.68;;
62848;SDS011;48941;49.516;8.286;2022-12-07T09:11:13;14.40;;;7.00;;
62848;SDS011;48941;49.516;8.286;2022-12-07T09:13:41;14.88;;;7.45;;
62848;SDS011;48941;49.516;8.286;2022-12-07T09:16:09;10.98;;;6.97;;
62848;SDS011;48941;49.516;8.286;2022-12-07T09:18:38;11.73;;;6.32;;
62848;SDS011;48941;49.516;8.286;2022-12-07T09:21:07;14.88;;;7.35;;
62848;SDS011;48941;49.516;8.286;2022-12-07T09:23:35;11.95;;;7.05;;
62848;SDS011;48941;49.516;8.286;2022-12-07T09:26:03;11.25;;;6.72;;
62848;SDS011;48941;49.516;8.286;2022-12-07T09:31:05;10.05;;;5.95;;
62848;SDS011;48941;49.516;8.286;2022-12-07T09:33:54;11.32;;;6.75;;
62848;SDS011;48941;49.516;8.286;2022-12-07T09:36:22;11.20;;;6.77;;
62848;SDS011;48941;49.516;8.286;2022-12-07T09:38:50;13.15;;;6.93;;
62848;SDS011;48941;49.516;8.286;2022-12-07T09:41:18;11.63;;;6.75;;
62848;SDS011;48941;49.516;8.286;2022-12-07T09:43:46;11.35;;;6.78;;
62848;SDS011;48941;49.516;8.286;2022-12-07T09:46:15;11.85;;;7.10;;
62848;SDS011;48941;49.516;8.286;2022-12-07T09:48:46;14.50;;;7.40;;
62848;SDS011;48941;49.516;8.286;2022-12-07T09:51:18;11.77;;;6.57;;
62848;SDS011;48941;49.516;8.286;2022-12-07T09:53:51;11.35;;;6.63;;
62848;SDS011;48941;49.516;8.286;2022-12-07T09:56:20;12.52;;;6.30;;
62848;SDS011;48941;49.516;8.286;2022-12-07T09:58:50;11.23;;;6.30;;
62848;SDS011;48941;49.516;8.286;2022-12-07T10:01:22;8.75;;;5.85;;
62848;SDS011;48941;49.516;8.286;2022-12-07T10:03:51;10.77;;;6.43;;
62848;SDS011;48941;49.516;8.286;2022-12-07T10:06:23;10.55;;;6.15;;
62848;SDS011;48941;49.516;8.286;2022-12-07T10:08:51;12.43;;;7.80;;
62848;SDS011;48941;49.516;8.286;2022-12-07T10:11:19;11.63;;;6.45;;
62848;SDS011;48941;49.516;8.286;2022-12-07T10:13:47;11.20;;;5.70;;
62848;SDS011;48941;49.516;8.286;2022-12-07T10:16:32;9.50;;;5.75;;
62848;SDS011;48941;49.516;8.286;2022-12-07T10:19:18;11.30;;;6.18;;
62848;SDS011;48941;49.516;8.286;2022-12-07T10:22:01;12.48;;;6.57;;
62848;SDS011;48941;49.516;8.286;2022-12-07T10:24:31;9.88;;;6.10;;
62848;SDS011;48941;49.516;8.286;2022-12-07T10:26:58;10.98;;;6.38;;
62848;SDS011;48941;49.516;8.286;2022-12-07T10:29:28;10.32;;;6.32;;
62848;SDS011;48941;49.516;8.286;2022-12-07T10:31:59;9.90;;;5.95;;
62848;SDS011;48941;49.516;8.286;2022-12-07T10:34:29;11.32;;;6.03;;
62848;SDS011;48941;49.516;8.286;2022-12-07T10:37:15;12.70;;;6.45;;
62848;SDS011;48941;49.516;8.286;2022-12-07T10:39:44;8.52;;;5.78;;
62848;SDS011;48941;49.516;8.286;2022-12-07T10:42:18;9.43;;;6.05;;
62848;SDS011;48941;49.516;8.286;2022-12-07T10:44:47;9.05;;;5.60;;
62848;SDS011;48941;49.516;8.286;2022-12-07T10:47:28;8.90;;;5.68;;
62848;SDS011;48941;49.516;8.286;2022-12-07T10:53:06;12.07;;;4.90;;
62848;SDS011;48941;49.516;8.286;2022-12-07T10:55:56;11.15;;;4.78;;
62848;SDS011;48941;49.516;8.286;2022-12-07T10:58:40;10.65;;;4.75;;
62848;SDS011;48941;49.516;8.286;2022-12-07T11:01:22;8.13;;;4.60;;
62848;SDS011;48941;49.516;8.286;2022-12-07T11:03:56;7.20;;;4.18;;
62848;SDS011;48941;49.516;8.286;2022-12-07T11:06:43;6.75;;;3.95;;
62848;SDS011;48941;49.516;8.286;2022-12-07T11:09:42;9.02;;;4.10;;
62848;SDS011;48941;49.516;8.286;2022-12-07T11:12:46;5.78;;;4.05;;
62848;SDS011;48941;49.516;8.286;2022-12-07T11:15:21;9.00;;;4.53;;
62848;SDS011;48941;49.516;8.286;2022-12-07T11:17:53;7.03;;;4.13;;
62848;SDS011;48941;49.516;8.286;2022-12-07T11:20:29;13.05;;;5.22;;
62848;SDS011;48941;49.516;8.286;2022-12-07T11:23:09;8.85;;;4.35;;
62848;SDS011;48941;49.516;8.286;2022-12-07T11:25:47;9.68;;;4.63;;
62848;SDS011;48941;49.516;8.286;2022-12-07T11:28:24;7.10;;;4.25;;
62848;SDS011;48941;49.516;8.286;2022-12-07T11:31:02;6.78;;;3.60;;
62848;SDS011;48941;49.516;8.286;2022-12-07T11:33:39;6.72;;;3.97;;
62848;SDS011;48941;49.516;8.286;2022-12-07T11:41:16;5.22;;;3.30;;
62848;SDS011;48941;49.516;8.286;2022-12-07T11:43:52;5.90;;;3.40;;
62848;SDS011;48941;49.516;8.286;2022-12-07T11:46:23;6.50;;;3.40;;
62848;SDS011;48941;49.516;8.286;2022-12-07T11:48:55;6.13;;;3.72;;
62848;SDS011;48941;49.516;8.286;2022-12-07T11:51:31;4.47;;;3.35;;
62848;SDS011;48941;49.516;8.286;2022-12-07T11:54:05;5.88;;;3.72;;
62848;SDS011;48941;49.516;8.286;2022-12-07T11:56:42;5.43;;;3.47;;
62848;SDS011;48941;49.516;8.286;2022-12-07T11:59:13;7.07;;;3.55;;
62848;SDS011;48941;49.516;8.286;2022-12-07T12:01:50;6.07;;;3.42;;
62848;SDS011;48941;49.516;8.286;2022-12-07T12:04:25;8.68;;;4.00;;
62848;SDS011;48941;49.516;8.286;2022-12-07T12:06:58;8.18;;;3.97;;
62848;SDS011;48941;49.516;8.286;2022-12-07T12:09:48;5.55;;;3.85;;
62848;SDS011;48941;49.516;8.286;2022-12-07T12:15:57;5.53;;;3.47;;
62848;SDS011;48941;49.516;8.286;2022-12-07T12:18:40;7.25;;;3.60;;
62848;SDS011;48941;49.516;8.286;2022-12-07T12:21:20;9.73;;;3.23;;
62848;SDS011;48941;49.516;8.286;2022-12-07T12:23:55;7.22;;;3.80;;
62848;SDS011;48941;49.516;8.286;2022-12-07T12:26:27;7.05;;;3.60;;
62848;SDS011;48941;49.516;8.286;2022-12-07T12:28:59;6.10;;;3.30;;
62848;SDS011;48941;49.516;8.286;2022-12-07T12:31:34;4.90;;;2.97;;
62848;SDS011;48941;49.516;8.286;2022-12-07T12:36:59;5.30;;;3.05;;
62848;SDS011;48941;49.516;8.286;2022-12-07T12:39:27;7.35;;;3.00;;
62848;SDS011;48941;49.516;8.286;2022-12-07T12:41:56;5.88;;;3.13;;
62848;SDS011;48941;49.516;8.286;2022-12-07T12:44:45;5.97;;;2.60;;
62848;SDS011;48941;49.516;8.286;2022-12-07T12:47:38;6.95;;;2.72;;
62848;SDS011;48941;49.516;8.286;2022-12-07T12:50:15;7.53;;;4.38;;
62848;SDS011;48941;49.516;8.286;2022-12-07T12:52:47;7.75;;;3.10;;
62848;SDS011;48941;49.516;8.286;2022-12-07T12:55:21;5.70;;;2.75;;
62848;SDS011;48941;49.516;8.286;2022-12-07T13:10:08;6.32;;;2.90;;
62848;SDS011;48941;49.516;8.286;2022-12-07T13:12:55;4.30;;;2.60;;
62848;SDS011;48941;49.516;8.286;2022-12-07T13:15:34;3.85;;;2.72;;
62848;SDS011;48941;49.516;8.286;2022-12-07T13:18:04;4.22;;;2.50;;
62848;SDS011;48941;49.516;8.286;2022-12-07T13:20:53;5.85;;;4.20;;
62848;SDS011;48941;49.516;8.286;2022-12-07T13:23:23;5.45;;;2.50;;
62848;SDS011;48941;49.516;8.286;2022-12-07T13:28:52;4.28;;;2.53;;
62848;SDS011;48941;49.516;8.286;2022-12-07T13:31:35;4.13;;;2.50;;
62848;SDS011;48941;49.516;8.286;2022-12-07T13:34:26;5.15;;;2.50;;
62848;SDS011;48941;49.516;8.286;2022-12-07T13:36:58;7.45;;;3.15;;
62848;SDS011;48941;49.516;8.286;2022-12-07T13:39:28;5.05;;;2.92;;
62848;SDS011;48941;49.516;8.286;2022-12-07T13:41:57;4.40;;;2.63;;
62848;SDS011;48941;49.516;8.286;2022-12-07T13:44:28;4.97;;;2.75;;
62848;SDS011;48941;49.516;8.286;2022-12-07T13:47:09;4.80;;;2.50;;
62848;SDS011;48941;49.516;8.286;2022-12-07T13:49:47;4.70;;;2.67;;
62848;SDS011;48941;49.516;8.286;2022-12-07T13:52:20;4.82;;;2.67;;
62848;SDS011;48941;49.516;8.286;2022-12-07T13:54:55;4.20;;;2.80;;
62848;SDS011;48941;49.516;8.286;2022-12-07T13:57:27;6.25;;;2.80;;
62848;SDS011;48941;49.516;8.286;2022-12-07T13:59:57;3.92;;;2.80;;
62848;SDS011;48941;49.516;8.286;2022-12-07T14:02:27;5.57;;;3.10;;
62848;SDS011;48941;49.516;8.286;2022-12-07T14:05:09;7.55;;;2.90;;
62848;SDS011;48941;49.516;8.286;2022-12-07T14:07:48;4.72;;;3.10;;
62848;SDS011;48941;49.516;8.286;2022-12-07T14:10:24;5.68;;;3.65;;
62848;SDS011;48941;49.516;8.286;2022-12-07T14:12:53;7.10;;;2.97;;
62848;SDS011;48941;49.516;8.286;2022-12-07T14:15:22;5.70;;;2.70;;
62848;SDS011;48941;49.516;8.286;2022-12-07T14:17:54;6.32;;;2.83;;
62848;SDS011;48941;49.516;8.286;2022-12-07T14:20:30;3.33;;;2.38;;
62848;SDS011;48941;49.516;8.286;2022-12-07T14:23:00;5.10;;;2.80;;
62848;SDS011;48941;49.516;8.286;2022-12-07T14:25:44;5.30;;;3.10;;
62848;SDS011;48941;49.516;8.286;2022-12-07T14:28:24;4.47;;;2.70;;
62848;SDS011;48941;49.516;8.286;2022-12-07T14:30:53;6.43;;;3.60;;
62848;SDS011;48941;49.516;8.286;2022-12-07T14:33:21;8.15;;;3.95;;
62848;SDS011;48941;49.516;8.286;2022-12-07T14:35:51;8.00;;;3.70;;
62848;SDS011;48941;49.516;8.286;2022-12-07T14:38:21;7.70;;;4.15;;
62848;SDS011;48941;49.516;8.286;2022-12-07T14:40:49;9.10;;;3.60;;
62848;SDS011;48941;49.516;8.286;2022-12-07T14:43:17;7.53;;;3.50;;
62848;SDS011;48941;49.516;8.286;2022-12-07T14:45:46;6.18;;;3.78;;
62848;SDS011;48941;49.516;8.286;2022-12-07T14:48:14;7.53;;;4.13;;
62848;SDS011;48941;49.516;8.286;2022-12-07T14:51:04;10.07;;;5.60;;
62848;SDS011;48941;49.516;8.286;2022-12-07T14:53:52;9.15;;;4.35;;
62848;SDS011;48941;49.516;8.286;2022-12-07T14:56:23;13.20;;;5.22;;
62848;SDS011;48941;49.516;8.286;2022-12-07T14:58:50;5.75;;;3.60;;
62848;SDS011;48941;49.516;8.286;2022-12-07T15:01:18;6.68;;;4.13;;
62848;SDS011;48941;49.516;8.286;2022-12-07T15:03:46;9.35;;;4.40;;
62848;SDS011;48941;49.516;8.286;2022-12-07T15:06:16;11.55;;;5.35;;
62848;SDS011;48941;49.516;8.286;2022-12-07T15:08:45;8.80;;;4.63;;
62848;SDS011;48941;49.516;8.286;2022-12-07T15:11:13;9.25;;;4.50;;
62848;SDS011;48941;49.516;8.286;2022-12-07T15:13:41;10.77;;;5.65;;
62848;SDS011;48941;49.516;8.286;2022-12-07T15:16:27;10.80;;;5.03;;
62848;SDS011;48941;49.516;8.286;2022-12-07T15:19:15;12.10;;;5.95;;
62848;SDS011;48941;49.516;8.286;2022-12-07T15:21:55;15.93;;;5.05;;
62848;SDS011;48941;49.516;8.286;2022-12-07T15:24:23;10.85;;;5.18;;
62848;SDS011;48941;49.516;8.286;2022-12-07T15:26:51;8.50;;;3.58;;
62848;SDS011;48941;49.516;8.286;2022-12-07T15:29:19;6.28;;;3.53;;
62848;SDS011;48941;49.516;8.286;2022-12-07T15:31:49;5.78;;;3.17;;
62848;SDS011;48941;49.516;8.286;2022-12-07T15:34:23;5.68;;;3.33;;
62848;SDS011;48941;49.516;8.286;2022-12-07T15:36:52;6.88;;;3.60;;
62848;SDS011;48941;49.516;8.286;2022-12-07T15:39:22;5.80;;;3.53;;
62848;SDS011;48941;49.516;8.286;2022-12-07T15:41:49;12.07;;;4.70;;
62848;SDS011;48941;49.516;8.286;2022-12-07T15:44:17;11.35;;;4.70;;
62848;SDS011;48941;49.516;8.286;2022-12-07T15:47:03;5.75;;;4.13;;